createdAt,value
2019-01-20T00:00:28.549Z,1014.87
2019-01-20T00:01:28.117Z,1014.88
2019-01-20T00:02:28.109Z,1014.84
2019-01-20T00:03:28.206Z,1014.86
2019-01-20T00:04:28.101Z,1014.87
2019-01-20T00:05:28.353Z,1014.87
2019-01-20T00:06:28.285Z,1014.89
2019-01-20T00:07:28.193Z,1014.88
2019-01-20T00:08:28.247Z,1014.86
2019-01-20T00:09:28.206Z,1014.85
2019-01-20T00:10:28.297Z,1014.91
2019-01-20T00:11:28.063Z,1014.92
2019-01-20T00:12:28.298Z,1014.92
2019-01-20T00:13:28.103Z,1014.91
2019-01-20T00:14:28.340Z,1014.88
2019-01-20T00:15:28.091Z,1014.86
2019-01-20T00:16:28.238Z,1014.87
2019-01-20T00:17:28.111Z,1014.87
2019-01-20T00:18:28.396Z,1014.86
2019-01-20T00:19:28.475Z,1014.87
2019-01-20T00:20:28.485Z,1014.82
2019-01-20T00:21:28.189Z,1014.86
2019-01-20T00:22:28.195Z,1014.87
2019-01-20T00:23:28.199Z,1014.85
2019-01-20T00:24:28.181Z,1014.85
2019-01-20T00:25:28.163Z,1014.87
2019-01-20T00:26:28.325Z,1014.83
2019-01-20T00:27:28.229Z,1014.87
2019-01-20T00:28:28.339Z,1014.84
2019-01-20T00:29:28.476Z,1014.87
2019-01-20T00:30:28.281Z,1014.85
2019-01-20T00:31:28.056Z,1014.87
2019-01-20T00:32:28.215Z,1014.87
2019-01-20T00:33:28.045Z,1014.85
2019-01-20T00:34:28.049Z,1014.83
2019-01-20T00:35:28.039Z,1014.8
2019-01-20T00:36:28.108Z,1014.82
2019-01-20T00:37:28.046Z,1014.83
2019-01-20T00:38:28.230Z,1014.85
2019-01-20T00:39:28.075Z,1014.81
2019-01-20T00:40:28.036Z,1014.83
2019-01-20T00:41:28.504Z,1014.83
2019-01-20T00:42:28.058Z,1014.87
2019-01-20T00:43:28.114Z,1014.86
2019-01-20T00:44:28.030Z,1014.84
2019-01-20T00:45:28.179Z,1014.84
2019-01-20T00:46:28.029Z,1014.82
2019-01-20T00:47:28.263Z,1014.79
2019-01-20T00:48:28.126Z,1014.76
2019-01-20T00:49:28.156Z,1014.77
2019-01-20T00:50:28.072Z,1014.74
2019-01-20T00:51:28.116Z,1014.73
2019-01-20T00:52:28.052Z,1014.72
2019-01-20T00:53:28.058Z,1014.71
2019-01-20T00:54:28.644Z,1014.74
2019-01-20T00:55:28.025Z,1014.74
2019-01-20T00:56:28.090Z,1014.74
2019-01-20T00:57:28.441Z,1014.74
2019-01-20T00:58:28.570Z,1014.75
2019-01-20T00:59:28.100Z,1014.76
2019-01-20T01:00:28.060Z,1014.78
2019-01-20T01:01:28.161Z,1014.77
2019-01-20T01:02:28.106Z,1014.79
2019-01-20T01:03:28.471Z,1014.79
2019-01-20T01:04:28.028Z,1014.81
2019-01-20T01:05:28.114Z,1014.8
2019-01-20T01:06:28.061Z,1014.81
2019-01-20T01:07:28.149Z,1014.82
2019-01-20T01:08:28.429Z,1014.85
2019-01-20T01:09:28.012Z,1014.88
2019-01-20T01:10:28.173Z,1014.8
2019-01-20T01:11:32.075Z,1014.86
2019-01-20T01:12:28.169Z,1014.83
2019-01-20T01:13:28.243Z,1014.81
2019-01-20T01:14:28.351Z,1014.79
2019-01-20T01:15:29.828Z,1014.77
2019-01-20T01:16:28.036Z,1014.78
2019-01-20T01:17:28.273Z,1014.8
2019-01-20T01:18:27.986Z,1014.81
2019-01-20T01:19:28.111Z,1014.82
2019-01-20T01:20:28.195Z,1014.84
2019-01-20T01:21:28.022Z,1014.83
2019-01-20T01:22:28.015Z,1014.84
2019-01-20T01:23:27.993Z,1014.86
2019-01-20T01:24:28.201Z,1014.79
2019-01-20T01:25:28.981Z,1014.82
2019-01-20T01:26:28.529Z,1014.86
2019-01-20T01:27:28.335Z,1014.84
2019-01-20T01:28:28.160Z,1014.87
2019-01-20T01:29:28.554Z,1014.86
2019-01-20T01:30:28.074Z,1014.89
2019-01-20T01:31:29.263Z,1014.92
2019-01-20T01:32:43.006Z,1014.86
2019-01-20T01:33:28.195Z,1014.87
2019-01-20T01:34:28.189Z,1014.89
2019-01-20T01:35:28.093Z,1014.86
2019-01-20T01:36:28.306Z,1014.88
2019-01-20T01:37:27.961Z,1014.92
2019-01-20T01:38:28.216Z,1014.89
2019-01-20T01:39:28.112Z,1014.93
2019-01-20T01:40:28.277Z,1014.93
2019-01-20T01:41:28.075Z,1014.94
2019-01-20T01:42:28.247Z,1014.93
2019-01-20T01:43:28.254Z,1014.92
2019-01-20T01:44:28.065Z,1014.93
2019-01-20T01:45:27.968Z,1014.97
2019-01-20T01:46:28.266Z,1014.91
2019-01-20T01:47:28.005Z,1014.99
2019-01-20T01:48:28.038Z,1014.94
2019-01-20T01:49:27.953Z,1014.97
2019-01-20T01:50:28.094Z,1014.99
2019-01-20T01:51:28.033Z,1014.96
2019-01-20T01:52:28.016Z,1014.98
2019-01-20T01:53:27.953Z,1014.98
2019-01-20T01:54:28.067Z,1014.94
2019-01-20T01:55:27.968Z,1014.96
2019-01-20T01:56:28.059Z,1015
2019-01-20T01:57:29.574Z,1014.94
2019-01-20T01:58:28.193Z,1014.93
2019-01-20T01:59:27.889Z,1014.93
2019-01-20T02:00:28.253Z,1014.97
2019-01-20T02:01:28.155Z,1014.94
2019-01-20T02:02:28.094Z,1014.95
2019-01-20T02:03:27.978Z,1014.96
2019-01-20T02:04:28.010Z,1014.98
2019-01-20T02:05:28.089Z,1015
2019-01-20T02:06:28.340Z,1014.94
2019-01-20T02:07:28.191Z,1014.93
2019-01-20T02:08:28.045Z,1014.97
2019-01-20T02:09:28.163Z,1014.94
2019-01-20T02:10:29.679Z,1014.92
2019-01-20T02:11:28.212Z,1014.95
2019-01-20T02:12:27.439Z,1014.95
2019-01-20T02:13:28.079Z,1014.94
2019-01-20T02:14:28.089Z,1014.94
2019-01-20T02:15:27.967Z,1014.98
2019-01-20T02:16:27.896Z,1015.01
2019-01-20T02:17:28.005Z,1014.98
2019-01-20T02:18:27.989Z,1014.97
2019-01-20T02:19:28.174Z,1014.96
2019-01-20T02:20:27.979Z,1014.95
2019-01-20T02:21:27.994Z,1014.95
2019-01-20T02:22:28.006Z,1014.96
2019-01-20T02:23:27.854Z,1014.92
2019-01-20T02:24:27.963Z,1014.94
2019-01-20T02:25:27.945Z,1014.9
2019-01-20T02:26:27.998Z,1014.96
2019-01-20T02:27:27.887Z,1014.92
2019-01-20T02:28:28.031Z,1014.93
2019-01-20T02:29:28.009Z,1014.94
2019-01-20T02:30:27.973Z,1014.9
2019-01-20T02:31:28.094Z,1014.9
2019-01-20T02:32:27.988Z,1014.9
2019-01-20T02:33:28.134Z,1014.91
2019-01-20T02:34:28.733Z,1014.93
2019-01-20T02:35:28.081Z,1014.93
2019-01-20T02:36:28.027Z,1014.93
2019-01-20T02:37:28.049Z,1014.92
2019-01-20T02:38:27.981Z,1014.92
2019-01-20T02:39:27.862Z,1014.93
2019-01-20T02:40:28.193Z,1014.94
2019-01-20T02:41:28.224Z,1014.93
2019-01-20T02:42:28.094Z,1014.89
2019-01-20T02:43:28.022Z,1014.92
2019-01-20T02:44:28.563Z,1014.94
2019-01-20T02:45:28.025Z,1014.9
2019-01-20T02:46:27.879Z,1014.93
2019-01-20T02:47:28.177Z,1014.88
2019-01-20T02:48:28.079Z,1014.88
2019-01-20T02:49:28.696Z,1014.88
2019-01-20T02:50:27.968Z,1014.84
2019-01-20T02:51:28.109Z,1014.86
2019-01-20T02:52:28.206Z,1014.87
2019-01-20T02:53:27.835Z,1014.85
2019-01-20T02:54:27.842Z,1014.83
2019-01-20T02:55:27.860Z,1014.84
2019-01-20T02:56:28.123Z,1014.8
2019-01-20T02:57:27.798Z,1014.8
2019-01-20T02:58:27.871Z,1014.79
2019-01-20T02:59:28.126Z,1014.81
2019-01-20T03:00:28.374Z,1014.8
2019-01-20T03:01:27.978Z,1014.82
2019-01-20T03:02:28.378Z,1014.83
2019-01-20T03:03:27.823Z,1014.81
2019-01-20T03:04:28.078Z,1014.8
2019-01-20T03:05:29.619Z,1014.78
2019-01-20T03:06:27.842Z,1014.79
2019-01-20T03:07:27.918Z,1014.81
2019-01-20T03:08:27.859Z,1014.79
2019-01-20T03:09:28.161Z,1014.79
2019-01-20T03:10:27.810Z,1014.78
2019-01-20T03:11:28.149Z,1014.81
2019-01-20T03:12:28.059Z,1014.77
2019-01-20T03:13:29.612Z,1014.79
2019-01-20T03:14:27.829Z,1014.8
2019-01-20T03:15:29.511Z,1014.74
2019-01-20T03:16:27.837Z,1014.71
2019-01-20T03:17:28.103Z,1014.76
2019-01-20T03:18:28.482Z,1014.73
2019-01-20T03:19:28.109Z,1014.74
2019-01-20T03:20:27.768Z,1014.71
2019-01-20T03:21:28.111Z,1014.69
2019-01-20T03:22:27.827Z,1014.73
2019-01-20T03:23:28.065Z,1014.71
2019-01-20T03:24:27.820Z,1014.74
2019-01-20T03:25:27.794Z,1014.75
2019-01-20T03:26:28.260Z,1014.76
2019-01-20T03:27:28.068Z,1014.81
2019-01-20T03:28:28.354Z,1014.83
2019-01-20T03:29:27.923Z,1014.8
2019-01-20T03:30:27.866Z,1014.82
2019-01-20T03:31:27.792Z,1014.83
2019-01-20T03:32:27.860Z,1014.84
2019-01-20T03:33:28.005Z,1014.83
2019-01-20T03:34:27.832Z,1014.83
2019-01-20T03:35:28.018Z,1014.87
2019-01-20T03:36:28.325Z,1014.84
2019-01-20T03:37:28.152Z,1014.84
2019-01-20T03:38:28.053Z,1014.83
2019-01-20T03:39:28.053Z,1014.8
2019-01-20T03:40:28.095Z,1014.83
2019-01-20T03:41:27.844Z,1014.84
2019-01-20T03:42:27.923Z,1014.85
2019-01-20T03:43:27.981Z,1014.86
2019-01-20T03:44:28.087Z,1014.86
2019-01-20T03:45:27.966Z,1014.86
2019-01-20T03:46:27.766Z,1014.84
2019-01-20T03:47:27.929Z,1014.85
2019-01-20T03:48:27.949Z,1014.85
2019-01-20T03:49:27.776Z,1014.84
2019-01-20T03:50:27.748Z,1014.82
2019-01-20T03:51:29.576Z,1014.86
2019-01-20T03:52:28.045Z,1014.85
2019-01-20T03:53:29.594Z,1014.91
2019-01-20T03:54:27.757Z,1014.89
2019-01-20T03:55:27.963Z,1014.9
2019-01-20T03:56:27.903Z,1014.9
2019-01-20T03:57:27.715Z,1014.92
2019-01-20T03:58:27.990Z,1014.88
2019-01-20T03:59:28.098Z,1014.89
2019-01-20T04:00:27.748Z,1014.85
2019-01-20T04:01:27.851Z,1014.89
2019-01-20T04:02:28.325Z,1014.88
2019-01-20T04:03:28.250Z,1014.85
2019-01-20T04:04:27.724Z,1014.81
2019-01-20T04:05:27.738Z,1014.85
2019-01-20T04:06:27.738Z,1014.82
2019-01-20T04:07:27.746Z,1014.82
2019-01-20T04:08:28.067Z,1014.8
2019-01-20T04:09:27.732Z,1014.82
2019-01-20T04:10:27.764Z,1014.79
2019-01-20T04:11:27.707Z,1014.79
2019-01-20T04:12:28.096Z,1014.81
2019-01-20T04:13:28.300Z,1014.78
2019-01-20T04:14:27.727Z,1014.78
2019-01-20T04:15:27.735Z,1014.78
2019-01-20T04:16:27.776Z,1014.74
2019-01-20T04:17:27.816Z,1014.73
2019-01-20T04:18:28.302Z,1014.74
2019-01-20T04:19:27.929Z,1014.7
2019-01-20T04:20:27.838Z,1014.75
2019-01-20T04:21:27.843Z,1014.72
2019-01-20T04:22:27.951Z,1014.76
2019-01-20T04:23:27.802Z,1014.77
2019-01-20T04:24:28.178Z,1014.74
2019-01-20T04:25:27.678Z,1014.78
2019-01-20T04:26:27.778Z,1014.76
2019-01-20T04:27:27.975Z,1014.77
2019-01-20T04:28:27.760Z,1014.79
2019-01-20T04:29:28.213Z,1014.8
2019-01-20T04:30:27.904Z,1014.8
2019-01-20T04:31:28.311Z,1014.77
2019-01-20T04:32:28.019Z,1014.77
2019-01-20T04:33:27.731Z,1014.72
2019-01-20T04:34:28.240Z,1014.77
2019-01-20T04:35:27.860Z,1014.76
2019-01-20T04:36:27.705Z,1014.78
2019-01-20T04:37:27.952Z,1014.77
2019-01-20T04:38:28.171Z,1014.8
2019-01-20T04:39:27.472Z,1014.78
2019-01-20T04:40:28.657Z,1014.82
2019-01-20T04:41:27.653Z,1014.84
2019-01-20T04:42:29.488Z,1014.79
2019-01-20T04:43:28.296Z,1014.8
2019-01-20T04:44:27.689Z,1014.8
2019-01-20T04:45:27.953Z,1014.78
2019-01-20T04:46:28.223Z,1014.77
2019-01-20T04:47:27.839Z,1014.77
2019-01-20T04:48:27.747Z,1014.73
2019-01-20T04:49:27.797Z,1014.79
2019-01-20T04:50:28.031Z,1014.76
2019-01-20T04:51:27.759Z,1014.77
2019-01-20T04:52:27.642Z,1014.73
2019-01-20T04:53:27.719Z,1014.76
2019-01-20T04:54:27.659Z,1014.73
2019-01-20T04:55:27.709Z,1014.73
2019-01-20T04:56:28.285Z,1014.73
2019-01-20T04:57:27.678Z,1014.71
2019-01-20T04:58:27.674Z,1014.75
2019-01-20T04:59:27.899Z,1014.77
2019-01-20T05:00:27.936Z,1014.71
2019-01-20T05:01:27.914Z,1014.67
2019-01-20T05:02:27.918Z,1014.7
2019-01-20T05:03:27.955Z,1014.68
2019-01-20T05:04:27.769Z,1014.72
2019-01-20T05:05:27.834Z,1014.74
2019-01-20T05:06:27.827Z,1014.75
2019-01-20T05:07:27.650Z,1014.76
2019-01-20T05:08:27.869Z,1014.74
2019-01-20T05:09:28.077Z,1014.75
2019-01-20T05:10:27.973Z,1014.71
2019-01-20T05:11:27.880Z,1014.7
2019-01-20T05:12:27.886Z,1014.7
2019-01-20T05:13:27.592Z,1014.72
2019-01-20T05:14:28.103Z,1014.65
2019-01-20T05:15:27.675Z,1014.7
2019-01-20T05:16:28.498Z,1014.67
2019-01-20T05:17:27.617Z,1014.67
2019-01-20T05:18:28.132Z,1014.65
2019-01-20T05:19:27.640Z,1014.65
2019-01-20T05:20:27.855Z,1014.69
2019-01-20T05:21:27.733Z,1014.72
2019-01-20T05:22:29.427Z,1014.74
2019-01-20T05:23:27.583Z,1014.73
2019-01-20T05:24:27.760Z,1014.73
2019-01-20T05:25:27.839Z,1014.77
2019-01-20T05:26:27.598Z,1014.74
2019-01-20T05:27:27.737Z,1014.75
2019-01-20T05:28:27.695Z,1014.74
2019-01-20T05:29:27.817Z,1014.74
2019-01-20T05:30:27.917Z,1014.78
2019-01-20T05:31:27.575Z,1014.75
2019-01-20T05:32:27.744Z,1014.76
2019-01-20T05:33:27.603Z,1014.79
2019-01-20T05:34:27.576Z,1014.79
2019-01-20T05:35:27.614Z,1014.79
2019-01-20T05:36:27.608Z,1014.8
2019-01-20T05:37:27.728Z,1014.81
2019-01-20T05:38:27.737Z,1014.79
2019-01-20T05:39:27.599Z,1014.82
2019-01-20T05:40:27.656Z,1014.84
2019-01-20T05:41:27.667Z,1014.84
2019-01-20T05:42:27.583Z,1014.86
2019-01-20T05:43:27.553Z,1014.82
2019-01-20T05:44:27.549Z,1014.84
2019-01-20T05:45:27.651Z,1014.86
2019-01-20T05:46:27.580Z,1014.83
2019-01-20T05:47:27.573Z,1014.88
2019-01-20T05:48:27.559Z,1014.87
2019-01-20T05:49:27.638Z,1014.85
2019-01-20T05:50:27.577Z,1014.86
2019-01-20T05:51:27.693Z,1014.85
2019-01-20T05:52:27.562Z,1014.84
2019-01-20T05:53:27.542Z,1014.86
2019-01-20T05:54:27.573Z,1014.87
2019-01-20T05:55:27.534Z,1014.87
2019-01-20T05:56:27.561Z,1014.89
2019-01-20T05:57:27.672Z,1014.86
2019-01-20T05:58:27.581Z,1014.84
2019-01-20T05:59:27.592Z,1014.89
2019-01-20T06:00:27.691Z,1014.92
2019-01-20T06:01:27.808Z,1014.86
2019-01-20T06:02:27.609Z,1014.91
2019-01-20T06:03:27.537Z,1014.9
2019-01-20T06:04:28.256Z,1014.91
2019-01-20T06:05:27.887Z,1014.89
2019-01-20T06:06:27.641Z,1014.9
2019-01-20T06:07:27.539Z,1014.98
2019-01-20T06:08:27.706Z,1014.94
2019-01-20T06:09:27.652Z,1014.95
2019-01-20T06:10:27.585Z,1014.96
2019-01-20T06:11:27.590Z,1014.98
2019-01-20T06:12:27.741Z,1014.99
2019-01-20T06:13:27.785Z,1015.02
2019-01-20T06:14:28.190Z,1015.02
2019-01-20T06:15:28.558Z,1015.06
2019-01-20T06:16:27.325Z,1015.07
2019-01-20T06:17:27.733Z,1015.1
2019-01-20T06:18:28.032Z,1015.1
2019-01-20T06:19:28.140Z,1015.14
2019-01-20T06:20:27.635Z,1015.14
2019-01-20T06:21:29.412Z,1015.18
2019-01-20T06:22:27.753Z,1015.18
2019-01-20T06:23:27.752Z,1015.15
2019-01-20T06:24:27.766Z,1015.17
2019-01-20T06:25:27.767Z,1015.14
2019-01-20T06:26:27.704Z,1015.19
2019-01-20T06:27:27.609Z,1015.15
2019-01-20T06:28:27.510Z,1015.13
2019-01-20T06:29:27.546Z,1015.15
2019-01-20T06:30:29.299Z,1015.15
2019-01-20T06:31:27.816Z,1015.13
2019-01-20T06:32:27.598Z,1015.12
2019-01-20T06:33:27.527Z,1015.12
2019-01-20T06:34:27.633Z,1015.08
2019-01-20T06:35:27.741Z,1015.08
2019-01-20T06:36:27.537Z,1015.1
2019-01-20T06:37:27.756Z,1015.06
2019-01-20T06:38:27.766Z,1015.04
2019-01-20T06:39:27.531Z,1015.05
2019-01-20T06:40:27.877Z,1015.1
2019-01-20T06:41:27.892Z,1015.13
2019-01-20T06:42:27.615Z,1015.1
2019-01-20T06:43:27.470Z,1015.13
2019-01-20T06:44:27.630Z,1015.14
2019-01-20T06:45:27.566Z,1015.16
2019-01-20T06:46:29.274Z,1015.11
2019-01-20T06:47:27.763Z,1015.16
2019-01-20T06:48:27.487Z,1015.15
2019-01-20T06:49:27.587Z,1015.22
2019-01-20T06:50:28.286Z,1015.18
2019-01-20T06:51:27.488Z,1015.19
2019-01-20T06:52:28.064Z,1015.2
2019-01-20T06:53:27.553Z,1015.17
2019-01-20T06:54:27.492Z,1015.22
2019-01-20T06:55:27.675Z,1015.22
2019-01-20T06:56:27.507Z,1015.23
2019-01-20T06:57:27.484Z,1015.23
2019-01-20T06:58:27.445Z,1015.26
2019-01-20T06:59:28.096Z,1015.25
2019-01-20T07:00:27.570Z,1015.25
2019-01-20T07:01:27.470Z,1015.23
2019-01-20T07:02:27.455Z,1015.27
2019-01-20T07:03:27.434Z,1015.29
2019-01-20T07:04:27.596Z,1015.32
2019-01-20T07:05:27.843Z,1015.31
2019-01-20T07:06:27.584Z,1015.31
2019-01-20T07:07:27.660Z,1015.33
2019-01-20T07:08:27.437Z,1015.34
2019-01-20T07:09:27.530Z,1015.35
2019-01-20T07:10:27.669Z,1015.39
2019-01-20T07:11:27.538Z,1015.44
2019-01-20T07:12:27.821Z,1015.42
2019-01-20T07:13:27.443Z,1015.47
2019-01-20T07:14:27.397Z,1015.41
2019-01-20T07:15:27.403Z,1015.46
2019-01-20T07:16:27.717Z,1015.49
2019-01-20T07:17:27.503Z,1015.48
2019-01-20T07:18:27.485Z,1015.48
2019-01-20T07:19:27.743Z,1015.5
2019-01-20T07:20:27.407Z,1015.54
2019-01-20T07:21:27.382Z,1015.53
2019-01-20T07:22:27.517Z,1015.5
2019-01-20T07:23:27.396Z,1015.51
2019-01-20T07:24:27.474Z,1015.52
2019-01-20T07:25:27.385Z,1015.52
2019-01-20T07:26:27.442Z,1015.53
2019-01-20T07:27:27.424Z,1015.51
2019-01-20T07:28:27.445Z,1015.5
2019-01-20T07:29:27.602Z,1015.53
2019-01-20T07:30:27.394Z,1015.53
2019-01-20T07:31:27.418Z,1015.54
2019-01-20T07:32:27.383Z,1015.58
2019-01-20T07:33:27.478Z,1015.58
2019-01-20T07:34:27.675Z,1015.64
2019-01-20T07:35:27.427Z,1015.61
2019-01-20T07:36:27.463Z,1015.64
2019-01-20T07:37:27.597Z,1015.66
2019-01-20T07:38:27.450Z,1015.69
2019-01-20T07:39:27.355Z,1015.73
2019-01-20T07:40:27.450Z,1015.69
2019-01-20T07:41:27.814Z,1015.74
2019-01-20T07:42:27.411Z,1015.7
2019-01-20T07:43:27.379Z,1015.7
2019-01-20T07:44:27.604Z,1015.75
2019-01-20T07:45:27.573Z,1015.77
2019-01-20T07:46:27.527Z,1015.77
2019-01-20T07:47:27.394Z,1015.81
2019-01-20T07:48:27.430Z,1015.82
2019-01-20T07:49:27.617Z,1015.84
2019-01-20T07:50:27.435Z,1015.88
2019-01-20T07:51:27.476Z,1015.83
2019-01-20T07:52:27.431Z,1015.86
2019-01-20T07:53:27.145Z,1015.86
2019-01-20T07:54:27.671Z,1015.93
2019-01-20T07:55:29.196Z,1015.89
2019-01-20T07:56:27.418Z,1015.91
2019-01-20T07:57:29.179Z,1015.97
2019-01-20T07:58:27.562Z,1015.96
2019-01-20T07:59:27.467Z,1015.95
2019-01-20T08:00:27.515Z,1015.96
2019-01-20T08:01:27.355Z,1016.02
2019-01-20T08:02:27.531Z,1016.03
2019-01-20T08:03:27.549Z,1016.01
2019-01-20T08:04:27.337Z,1016.03
2019-01-20T08:05:27.802Z,1016.03
2019-01-20T08:06:27.969Z,1016.07
2019-01-20T08:07:27.513Z,1016.05
2019-01-20T08:08:27.566Z,1016.05
2019-01-20T08:09:27.499Z,1016.03
2019-01-20T08:10:27.356Z,1016.04
2019-01-20T08:11:27.686Z,1016.07
2019-01-20T08:12:27.522Z,1016.07
2019-01-20T08:13:27.301Z,1016.03
2019-01-20T08:14:27.525Z,1016.04
2019-01-20T08:15:27.614Z,1016.09
2019-01-20T08:16:27.465Z,1016.05
2019-01-20T08:17:27.323Z,1016.06
2019-01-20T08:18:27.382Z,1016.1
2019-01-20T08:19:27.535Z,1016.06
2019-01-20T08:20:27.496Z,1016.12
2019-01-20T08:21:27.568Z,1016.09
2019-01-20T08:22:27.665Z,1016.12
2019-01-20T08:23:27.863Z,1016.14
2019-01-20T08:24:27.474Z,1016.14
2019-01-20T08:25:27.306Z,1016.19
2019-01-20T08:26:27.313Z,1016.16
2019-01-20T08:27:27.399Z,1016.17
2019-01-20T08:28:27.435Z,1016.17
2019-01-20T08:29:27.339Z,1016.23
2019-01-20T08:30:27.472Z,1016.24
2019-01-20T08:31:28.954Z,1016.23
2019-01-20T08:32:27.311Z,1016.27
2019-01-20T08:33:27.354Z,1016.31
2019-01-20T08:34:27.351Z,1016.29
2019-01-20T08:35:27.547Z,1016.34
2019-01-20T08:36:27.491Z,1016.37
2019-01-20T08:37:29.017Z,1016.39
2019-01-20T08:38:27.332Z,1016.39
2019-01-20T08:39:27.877Z,1016.4
2019-01-20T08:40:27.539Z,1016.44
2019-01-20T08:41:27.478Z,1016.44
2019-01-20T08:42:27.402Z,1016.46
2019-01-20T08:43:32.221Z,1016.45
2019-01-20T08:44:27.268Z,1016.46
2019-01-20T08:45:27.466Z,1016.48
2019-01-20T08:46:27.287Z,1016.47
2019-01-20T08:47:28.035Z,1016.48
2019-01-20T08:48:27.530Z,1016.47
2019-01-20T08:49:27.419Z,1016.47
2019-01-20T08:50:27.334Z,1016.49
2019-01-20T08:51:27.401Z,1016.49
2019-01-20T08:52:27.273Z,1016.51
2019-01-20T08:53:28.590Z,1016.48
2019-01-20T08:54:27.470Z,1016.56
2019-01-20T08:55:27.289Z,1016.54
2019-01-20T08:56:27.535Z,1016.6
2019-01-20T08:57:27.374Z,1016.56
2019-01-20T08:58:27.555Z,1016.62
2019-01-20T08:59:27.263Z,1016.6
2019-01-20T09:00:27.340Z,1016.66
2019-01-20T09:01:27.432Z,1016.67
2019-01-20T09:02:27.239Z,1016.67
2019-01-20T09:03:27.327Z,1016.68
2019-01-20T09:04:27.364Z,1016.67
2019-01-20T09:05:27.239Z,1016.73
2019-01-20T09:06:27.289Z,1016.74
2019-01-20T09:07:27.349Z,1016.74
2019-01-20T09:08:27.254Z,1016.78
2019-01-20T09:09:27.325Z,1016.78
2019-01-20T09:10:27.227Z,1016.76
2019-01-20T09:11:27.275Z,1016.77
2019-01-20T09:12:27.600Z,1016.76
2019-01-20T09:13:27.249Z,1016.77
2019-01-20T09:14:27.247Z,1016.81
2019-01-20T09:15:27.266Z,1016.77
2019-01-20T09:16:27.512Z,1016.78
2019-01-20T09:17:27.346Z,1016.78
2019-01-20T09:18:28.976Z,1016.83
2019-01-20T09:19:27.237Z,1016.84
2019-01-20T09:20:27.284Z,1016.81
2019-01-20T09:21:27.346Z,1016.82
2019-01-20T09:22:27.310Z,1016.84
2019-01-20T09:23:27.239Z,1016.87
2019-01-20T09:24:27.274Z,1016.83
2019-01-20T09:25:27.482Z,1016.85
2019-01-20T09:26:28.847Z,1016.84
2019-01-20T09:27:27.377Z,1016.82
2019-01-20T09:28:27.246Z,1016.83
2019-01-20T09:29:27.331Z,1016.85
2019-01-20T09:30:27.289Z,1016.87
2019-01-20T09:31:27.202Z,1016.86
2019-01-20T09:32:27.388Z,1016.85
2019-01-20T09:33:27.430Z,1016.87
2019-01-20T09:34:27.539Z,1016.88
2019-01-20T09:35:27.567Z,1016.88
2019-01-20T09:36:27.336Z,1016.91
2019-01-20T09:37:27.461Z,1016.89
2019-01-20T09:38:27.265Z,1016.84
2019-01-20T09:39:27.207Z,1016.9
2019-01-20T09:40:29.084Z,1016.94
2019-01-20T09:41:27.287Z,1016.95
2019-01-20T09:42:27.988Z,1016.94
2019-01-20T09:43:27.206Z,1016.95
2019-01-20T09:44:27.489Z,1016.93
2019-01-20T09:45:28.260Z,1016.93
2019-01-20T09:46:27.300Z,1016.92
2019-01-20T09:47:27.345Z,1016.94
2019-01-20T09:48:27.443Z,1016.95
2019-01-20T09:49:26.727Z,1016.91
2019-01-20T09:50:28.159Z,1016.91
2019-01-20T09:51:27.438Z,1016.91
2019-01-20T09:52:28.144Z,1016.92
2019-01-20T09:53:29.104Z,1016.95
2019-01-20T09:54:27.554Z,1016.98
2019-01-20T09:55:28.188Z,1016.98
2019-01-20T09:56:27.259Z,1016.99
2019-01-20T09:57:27.427Z,1017.02
2019-01-20T09:58:27.362Z,1017.01
2019-01-20T09:59:31.261Z,1017
2019-01-20T10:00:27.210Z,1017.01
2019-01-20T10:01:31.101Z,1017.02
2019-01-20T10:02:31.969Z,1017.02
2019-01-20T10:03:45.287Z,1017.02
2019-01-20T10:04:27.254Z,1017.03
2019-01-20T10:05:30.279Z,1017.01
2019-01-20T10:06:31.925Z,1017.03
2019-01-20T10:07:31.440Z,1017.05
2019-01-20T10:08:27.206Z,1017.07
2019-01-20T10:10:34.619Z,1017.07
2019-01-20T10:11:30.009Z,1017.06
2019-01-20T10:12:29.233Z,1017.07
2019-01-20T10:13:28.439Z,1017.05
2019-01-20T10:15:27.207Z,1017.09
2019-01-20T10:16:27.319Z,1017.03
2019-01-20T10:18:27.213Z,1017.05
2019-01-20T10:19:27.585Z,1017.07
2019-01-20T10:20:27.401Z,1017.05
2019-01-20T10:21:27.271Z,1017.03
2019-01-20T10:22:28.442Z,1017.03
2019-01-20T10:23:29.019Z,1017.01
2019-01-20T10:24:27.312Z,1017.05
2019-01-20T10:25:27.241Z,1016.99
2019-01-20T10:26:27.153Z,1017.01
2019-01-20T10:27:27.370Z,1017.04
2019-01-20T10:28:28.069Z,1017
2019-01-20T10:29:27.153Z,1017.06
2019-01-20T10:30:27.160Z,1017.01
2019-01-20T10:31:27.297Z,1017.03
2019-01-20T10:32:27.481Z,1017
2019-01-20T10:33:27.397Z,1017.03
2019-01-20T10:34:27.699Z,1017.01
2019-01-20T10:35:27.426Z,1017.02
2019-01-20T10:36:27.356Z,1017
2019-01-20T10:37:27.085Z,1016.99
2019-01-20T10:38:27.112Z,1017
2019-01-20T10:39:27.223Z,1016.99
2019-01-20T10:40:27.349Z,1016.98
2019-01-20T10:41:27.464Z,1016.97
2019-01-20T10:42:27.366Z,1016.98
2019-01-20T10:43:27.271Z,1016.99
2019-01-20T10:44:31.099Z,1016.99
2019-01-20T10:45:27.512Z,1017.02
2019-01-20T10:46:27.066Z,1017
2019-01-20T10:47:27.098Z,1016.98
2019-01-20T10:48:27.201Z,1017.01
2019-01-20T10:49:27.152Z,1017.01
2019-01-20T10:50:27.137Z,1016.98
2019-01-20T10:51:27.178Z,1016.96
2019-01-20T10:52:27.159Z,1016.99
2019-01-20T10:53:27.098Z,1016.98
2019-01-20T10:54:27.239Z,1016.99
2019-01-20T10:55:27.230Z,1016.99
2019-01-20T10:56:27.262Z,1016.96
2019-01-20T10:57:27.500Z,1016.95
2019-01-20T10:58:27.251Z,1016.95
2019-01-20T10:59:34.477Z,1017
2019-01-20T11:00:29.882Z,1016.97
2019-01-20T11:01:27.088Z,1017.01
2019-01-20T11:02:27.105Z,1017.02
2019-01-20T11:03:27.178Z,1017.05
2019-01-20T11:04:27.100Z,1017
2019-01-20T11:05:32.671Z,1017.02
2019-01-20T11:06:30.096Z,1017.05
2019-01-20T11:07:27.200Z,1017.06
2019-01-20T11:08:27.392Z,1017.05
2019-01-20T11:09:27.418Z,1017.02
2019-01-20T11:10:27.466Z,1017.02
2019-01-20T11:11:27.267Z,1017.04
2019-01-20T11:12:28.317Z,1017.05
2019-01-20T11:13:27.289Z,1017.01
2019-01-20T11:14:27.288Z,1017.01
2019-01-20T11:15:27.175Z,1017
2019-01-20T11:16:27.110Z,1017.02
2019-01-20T11:17:27.140Z,1017.03
2019-01-20T11:18:27.298Z,1017.03
2019-01-20T11:19:27.046Z,1017.08
2019-01-20T11:20:27.307Z,1017.05
2019-01-20T11:21:27.261Z,1017.04
2019-01-20T11:22:27.048Z,1017.04
2019-01-20T11:23:27.173Z,1017.03
2019-01-20T11:24:34.798Z,1016.99
2019-01-20T11:25:31.608Z,1016.99
2019-01-20T11:26:27.082Z,1016.98
2019-01-20T11:27:27.309Z,1017.03
2019-01-20T11:28:27.496Z,1017.04
2019-01-20T11:29:27.430Z,1016.99
2019-01-20T11:30:27.138Z,1016.97
2019-01-20T11:31:31.717Z,1016.98
2019-01-20T11:32:31.602Z,1016.98
2019-01-20T11:33:30.629Z,1016.99
2019-01-20T11:34:30.233Z,1016.97
2019-01-20T11:35:29.134Z,1016.96
2019-01-20T11:36:29.306Z,1016.94
2019-01-20T11:37:29.483Z,1016.97
2019-01-20T11:38:29.794Z,1016.94
2019-01-20T11:39:29.959Z,1016.97
2019-01-20T11:40:29.188Z,1016.96
2019-01-20T11:41:29.131Z,1016.95
2019-01-20T11:42:36.237Z,1016.95
2019-01-20T11:43:29.036Z,1016.96
2019-01-20T11:44:35.696Z,1016.93
2019-01-20T11:45:54.277Z,1016.96
2019-01-20T11:46:36.096Z,1016.92
2019-01-20T11:52:00.602Z,1016.95
2019-01-20T11:52:16.326Z,1016.97
2019-01-20T11:53:59.877Z,1016.95
2019-01-20T11:56:00.143Z,1016.94
2019-01-20T11:56:54.780Z,1016.92
2019-01-20T12:00:39.112Z,1016.92
2019-01-20T12:00:57.799Z,1016.91
2019-01-20T12:02:03.477Z,1016.91
2019-01-20T12:06:52.163Z,1016.87
2019-01-20T12:07:52.451Z,1016.88
2019-01-20T12:08:10.746Z,1016.9
2019-01-20T12:08:52.431Z,1016.92
2019-01-20T12:09:52.360Z,1016.88
2019-01-20T12:10:52.273Z,1016.88
2019-01-20T12:11:52.313Z,1016.85
2019-01-20T12:12:52.395Z,1016.88
2019-01-20T12:13:52.510Z,1016.87
2019-01-20T12:14:52.473Z,1016.9
2019-01-20T12:15:52.372Z,1016.91
2019-01-20T12:16:52.554Z,1016.9
2019-01-20T12:17:52.347Z,1016.88
2019-01-20T12:18:52.598Z,1016.9
2019-01-20T12:19:52.388Z,1016.91
2019-01-20T12:21:52.276Z,1016.88
2019-01-20T12:22:52.553Z,1016.88